createdAt,value
2022-10-24T00:01:14.705Z,8.92
2022-10-24T00:04:26.425Z,8.85
2022-10-24T00:07:38.136Z,8.79
2022-10-24T00:10:52.068Z,8.76
2022-10-24T00:14:04.906Z,8.65
2022-10-24T00:17:16.430Z,8.72
2022-10-24T00:20:28.630Z,8.72
2022-10-24T00:23:40.980Z,8.75
2022-10-24T00:26:52.735Z,8.56
2022-10-24T00:30:04.627Z,8.51
2022-10-24T00:33:16.400Z,8.54
2022-10-24T00:36:30.862Z,8.48
2022-10-24T00:39:42.428Z,8.45
2022-10-24T00:42:54.970Z,8.48
2022-10-24T00:46:08.324Z,8.53
2022-10-24T00:49:25.467Z,8.44
2022-10-24T00:52:42.475Z,8.38
2022-10-24T00:55:58.410Z,8.35
2022-10-24T00:59:13.764Z,8.45
2022-10-24T01:02:25.870Z,8.49
2022-10-24T01:05:44.101Z,8.54
2022-10-24T01:09:02.128Z,8.58
2022-10-24T01:12:26.330Z,8.57
2022-10-24T01:15:45.940Z,8.56
2022-10-24T01:19:01.737Z,8.58
2022-10-24T01:22:18.961Z,8.49
2022-10-24T01:25:38.348Z,8.51
2022-10-24T01:28:56.214Z,8.53
2022-10-24T01:32:12.699Z,8.47
2022-10-24T01:35:41.000Z,8.41
2022-10-24T01:38:58.053Z,8.38
2022-10-24T01:42:10.037Z,8.34
2022-10-24T01:45:27.786Z,8.33
2022-10-24T01:48:44.672Z,8.42
2022-10-24T01:52:00.761Z,8.35
2022-10-24T01:55:15.098Z,8.37
2022-10-24T01:58:28.205Z,8.40
2022-10-24T02:01:41.047Z,8.42
2022-10-24T02:04:58.786Z,8.42
2022-10-24T02:08:15.093Z,8.41
2022-10-24T02:11:26.680Z,8.42
2022-10-24T02:14:45.690Z,8.47
2022-10-24T02:17:57.942Z,8.48
2022-10-24T02:21:19.957Z,8.49
2022-10-24T02:24:35.834Z,8.48
2022-10-24T02:27:52.393Z,8.48
2022-10-24T02:31:10.126Z,8.42
2022-10-24T02:34:23.952Z,8.43
2022-10-24T02:37:38.810Z,8.43
2022-10-24T02:40:52.312Z,8.42
2022-10-24T02:44:06.525Z,8.49
2022-10-24T02:47:20.627Z,8.48
2022-10-24T02:50:32.916Z,8.47
2022-10-24T02:53:45.373Z,8.45
2022-10-24T02:57:02.332Z,8.47
2022-10-24T03:00:18.625Z,8.46
2022-10-24T03:03:30.429Z,8.40
2022-10-24T03:06:42.098Z,8.42
2022-10-24T03:09:54.482Z,8.40
2022-10-24T03:13:06.159Z,8.39
2022-10-24T03:16:17.739Z,8.40
2022-10-24T03:19:29.315Z,8.39
2022-10-24T03:22:41.063Z,8.37
2022-10-24T03:25:53.001Z,8.41
2022-10-24T03:29:04.644Z,8.40
2022-10-24T03:32:16.358Z,8.39
2022-10-24T03:35:28.312Z,8.36
2022-10-24T03:38:40.380Z,8.38
2022-10-24T03:41:52.188Z,8.38
2022-10-24T03:45:03.874Z,8.43
2022-10-24T03:48:16.272Z,8.46
2022-10-24T03:51:28.121Z,8.53
2022-10-24T03:54:40.175Z,8.52
2022-10-24T03:57:51.801Z,8.55
2022-10-24T04:01:03.540Z,8.58
2022-10-24T04:04:15.683Z,8.57
2022-10-24T04:07:27.540Z,8.58
2022-10-24T04:10:39.503Z,8.49
2022-10-24T04:13:52.352Z,8.47
2022-10-24T04:17:04.186Z,8.53
2022-10-24T04:20:19.573Z,8.57
2022-10-24T04:23:33.486Z,8.52
2022-10-24T04:26:45.594Z,8.61
2022-10-24T04:29:57.379Z,8.68
2022-10-24T04:33:09.175Z,8.71
2022-10-24T04:36:20.997Z,8.74
2022-10-24T04:39:32.725Z,8.77
2022-10-24T04:42:44.683Z,8.81
2022-10-24T04:45:57.129Z,8.86
2022-10-24T04:49:09.948Z,8.91
2022-10-24T04:52:21.564Z,8.93
2022-10-24T04:55:33.606Z,8.93
2022-10-24T04:58:45.724Z,8.98
2022-10-24T05:01:58.547Z,8.99
2022-10-24T05:05:11.203Z,9.06
2022-10-24T05:08:23.475Z,9.11
2022-10-24T05:11:35.997Z,9.15
2022-10-24T05:14:48.904Z,9.10
2022-10-24T05:18:00.545Z,9.12
2022-10-24T05:21:12.849Z,9.08
2022-10-24T05:24:24.653Z,9.04
2022-10-24T05:27:36.682Z,9.03
2022-10-24T05:30:50.723Z,9.04
2022-10-24T05:34:02.324Z,9.11
2022-10-24T05:37:14.246Z,9.14
2022-10-24T05:40:26.192Z,9.14
2022-10-24T05:43:37.890Z,9.19
2022-10-24T05:46:49.670Z,9.19
2022-10-24T05:50:01.405Z,9.23
2022-10-24T05:53:13.392Z,9.23
2022-10-24T05:56:25.032Z,9.27
2022-10-24T05:59:37.133Z,9.22
2022-10-24T06:02:49.615Z,9.26
2022-10-24T06:06:01.767Z,9.30
2022-10-24T06:09:14.125Z,9.31
2022-10-24T06:12:25.975Z,9.36
2022-10-24T06:15:37.880Z,9.42
2022-10-24T06:18:49.700Z,9.49
2022-10-24T06:22:01.398Z,9.56
2022-10-24T06:25:15.103Z,9.62
2022-10-24T06:28:27.464Z,9.67
2022-10-24T06:31:39.755Z,9.67
2022-10-24T06:34:51.576Z,9.70
2022-10-24T06:38:03.240Z,9.73
2022-10-24T06:41:17.644Z,9.75
2022-10-24T06:44:29.454Z,9.75
2022-10-24T06:47:41.250Z,9.82
2022-10-24T06:50:53.081Z,9.81
2022-10-24T06:54:05.284Z,9.87
2022-10-24T06:57:18.026Z,9.95
2022-10-24T07:00:30.217Z,10.00
2022-10-24T07:03:41.912Z,10.09
2022-10-24T07:06:53.904Z,10.23
2022-10-24T07:10:05.905Z,10.39
2022-10-24T07:13:17.659Z,10.53
2022-10-24T07:16:31.361Z,10.60
2022-10-24T07:19:43.153Z,10.87
2022-10-24T07:22:54.947Z,10.96
2022-10-24T07:26:11.827Z,11.07
2022-10-24T07:29:24.499Z,11.11
2022-10-24T07:32:36.262Z,11.23
2022-10-24T07:35:50.175Z,11.31
2022-10-24T07:39:03.485Z,11.54
2022-10-24T07:42:18.756Z,12.02
2022-10-24T07:45:32.290Z,12.52
2022-10-24T07:48:44.336Z,12.69
2022-10-24T07:51:56.200Z,12.98
2022-10-24T07:55:08.211Z,13.54
2022-10-24T07:58:20.403Z,14.14
2022-10-24T08:01:34.793Z,14.83
2022-10-24T08:04:47.106Z,15.61
2022-10-24T08:08:11.940Z,16.28
2022-10-24T08:11:18.109Z,16.88
2022-10-24T08:14:29.873Z,17.03
2022-10-24T08:17:41.832Z,17.73
2022-10-24T08:21:02.671Z,18.18
2022-10-24T08:24:15.048Z,18.73
2022-10-24T08:27:26.825Z,18.70
2022-10-24T08:30:38.751Z,19.71
2022-10-24T08:33:50.949Z,19.46
2022-10-24T08:37:02.903Z,19.28
2022-10-24T08:40:20.779Z,20.04
2022-10-24T08:43:33.481Z,20.90
2022-10-24T08:46:56.063Z,21.38
2022-10-24T08:50:15.321Z,21.70
2022-10-24T08:53:31.946Z,22.51
2022-10-24T08:56:43.914Z,22.58
2022-10-24T08:59:58.354Z,22.75
2022-10-24T09:03:22.934Z,23.20
2022-10-24T09:06:33.528Z,23.83
2022-10-24T09:09:51.117Z,24.21
2022-10-24T09:13:03.404Z,23.98
2022-10-24T09:16:21.697Z,23.53
2022-10-24T09:19:36.379Z,22.72
2022-10-24T09:22:49.440Z,21.91
2022-10-24T09:26:03.922Z,21.39
2022-10-24T09:29:16.761Z,21.02
2022-10-24T09:32:32.360Z,20.75
2022-10-24T09:35:45.953Z,20.48
2022-10-24T09:38:57.807Z,20.38
2022-10-24T09:42:13.995Z,20.37
2022-10-24T09:45:46.676Z,20.18
2022-10-24T09:49:01.545Z,19.91
2022-10-24T09:52:23.437Z,19.80
2022-10-24T09:55:35.809Z,19.79
2022-10-24T09:58:48.598Z,19.54
2022-10-24T10:02:13.098Z,19.46
2022-10-24T10:05:27.446Z,19.27
2022-10-24T10:08:41.460Z,19.10
2022-10-24T10:12:03.792Z,18.91
2022-10-24T10:15:29.125Z,18.74
2022-10-24T10:18:50.099Z,18.73
2022-10-24T10:22:05.434Z,18.78
2022-10-24T10:25:34.577Z,18.86
2022-10-24T10:28:59.895Z,18.83
2022-10-24T10:32:17.808Z,18.81
2022-10-24T10:35:36.695Z,18.86
2022-10-24T10:39:03.723Z,18.85
2022-10-24T10:42:21.006Z,18.83
2022-10-24T10:45:43.080Z,18.78
2022-10-24T10:49:07.202Z,18.68
2022-10-24T10:52:24.477Z,18.62
2022-10-24T10:55:42.203Z,18.52
2022-10-24T10:59:02.169Z,18.57
2022-10-24T11:02:41.063Z,18.64
2022-10-24T11:06:06.176Z,18.61
2022-10-24T11:09:33.905Z,18.59
2022-10-24T11:12:47.482Z,18.58
2022-10-24T11:16:04.976Z,18.76
2022-10-24T11:19:28.080Z,18.98
2022-10-24T11:22:45.058Z,19.16
2022-10-24T11:26:02.552Z,19.18
2022-10-24T11:29:22.242Z,19.45
2022-10-24T11:32:40.990Z,20.03
2022-10-24T11:36:12.975Z,20.43
2022-10-24T11:39:29.246Z,20.58
2022-10-24T11:42:48.226Z,21.00
2022-10-24T11:46:06.252Z,21.05
2022-10-24T11:49:26.245Z,21.08
2022-10-24T11:52:43.429Z,21.03
2022-10-24T11:56:00.853Z,21.15
2022-10-24T11:59:18.795Z,21.27
2022-10-24T12:03:09.941Z,21.48
2022-10-24T12:06:53.773Z,21.46
2022-10-24T12:10:30.010Z,21.49
2022-10-24T12:17:42.520Z,21.34
2022-10-24T12:20:58.785Z,21.27
2022-10-24T12:24:15.321Z,21.08
2022-10-24T12:27:36.497Z,21.00
2022-10-24T12:30:49.045Z,21.03
2022-10-24T12:34:49.445Z,20.99
2022-10-24T12:38:02.837Z,21.06
2022-10-24T12:41:38.700Z,21.14
2022-10-24T12:44:54.500Z,21.19
2022-10-24T12:48:40.845Z,21.18
2022-10-24T12:51:53.143Z,21.12
2022-10-24T12:55:05.574Z,21.07
2022-10-24T12:58:32.503Z,21.00
2022-10-24T13:01:44.501Z,21.01
2022-10-24T13:05:08.840Z,20.98
2022-10-24T13:08:35.465Z,20.94
2022-10-24T13:12:01.344Z,20.86
2022-10-24T13:15:29.700Z,20.72
2022-10-24T13:18:53.521Z,20.62
2022-10-24T13:22:07.258Z,20.49
2022-10-24T13:25:42.025Z,20.41
2022-10-24T13:28:53.830Z,20.28
2022-10-24T13:32:36.132Z,20.20
2022-10-24T13:35:48.521Z,20.12
2022-10-24T13:39:05.376Z,20.07
2022-10-24T13:42:27.306Z,20.00
2022-10-24T13:45:46.377Z,19.95
2022-10-24T13:49:00.705Z,19.94
2022-10-24T13:52:19.655Z,19.94
2022-10-24T13:55:36.429Z,20.01
2022-10-24T13:58:50.117Z,20.08
2022-10-24T14:02:04.189Z,20.08
2022-10-24T14:05:36.059Z,20.04
2022-10-24T14:09:02.805Z,20.02
2022-10-24T14:12:06.896Z,19.98
2022-10-24T14:15:27.735Z,19.91
2022-10-24T14:18:41.478Z,19.85
2022-10-24T14:21:53.242Z,19.77
2022-10-24T14:25:05.256Z,19.70
2022-10-24T14:28:24.312Z,19.63
2022-10-24T14:31:39.073Z,19.56
2022-10-24T14:34:53.066Z,19.46
2022-10-24T14:38:09.567Z,19.31
2022-10-24T14:41:20.058Z,19.23
2022-10-24T14:44:35.030Z,19.20
2022-10-24T14:47:50.307Z,19.16
2022-10-24T14:51:11.369Z,19.12
2022-10-24T14:54:27.673Z,19.05
2022-10-24T14:57:42.760Z,18.92
2022-10-24T15:00:54.975Z,18.78
2022-10-24T15:04:09.304Z,18.72
2022-10-24T15:07:34.276Z,18.68
2022-10-24T15:10:49.092Z,18.64
2022-10-24T15:14:08.540Z,18.62
2022-10-24T15:17:32.920Z,18.49
2022-10-24T15:20:48.638Z,18.40
2022-10-24T15:24:03.523Z,18.31
2022-10-24T15:27:30.750Z,18.20
2022-10-24T15:30:43.990Z,18.01
2022-10-24T15:33:56.166Z,17.93
2022-10-24T15:37:09.366Z,17.95
2022-10-24T15:40:27.531Z,17.86
2022-10-24T15:43:39.450Z,17.75
2022-10-24T15:46:52.345Z,17.69
2022-10-24T15:50:04.142Z,17.59
2022-10-24T15:53:23.480Z,17.50
2022-10-24T15:56:35.325Z,17.43
2022-10-24T15:59:47.210Z,17.35
2022-10-24T16:03:04.341Z,17.28
2022-10-24T16:06:16.485Z,17.24
2022-10-24T16:09:31.624Z,17.24
2022-10-24T16:12:43.570Z,17.25
2022-10-24T16:15:56.665Z,17.18
2022-10-24T16:19:13.319Z,16.99
2022-10-24T16:22:25.184Z,16.85
2022-10-24T16:25:40.947Z,16.63
2022-10-24T16:28:52.807Z,16.50
2022-10-24T16:32:04.729Z,16.46
2022-10-24T16:35:18.390Z,16.51
2022-10-24T16:38:31.464Z,16.52
2022-10-24T16:41:45.408Z,16.54
2022-10-24T16:44:58.581Z,16.54
2022-10-24T16:48:11.528Z,16.53
2022-10-24T16:51:30.582Z,16.48
2022-10-24T16:54:42.286Z,16.45
2022-10-24T16:57:54.479Z,16.44
2022-10-24T17:01:13.956Z,16.40
2022-10-24T17:04:28.081Z,16.35
2022-10-24T17:07:39.702Z,16.31
2022-10-24T17:10:51.756Z,16.28
2022-10-24T17:14:03.721Z,16.25
2022-10-24T17:17:15.565Z,16.23
2022-10-24T17:20:27.413Z,16.22
2022-10-24T17:23:40.907Z,16.23
2022-10-24T17:26:54.177Z,16.17
2022-10-24T17:30:07.486Z,16.31
2022-10-24T17:33:22.109Z,16.27
2022-10-24T17:36:39.199Z,16.25
2022-10-24T17:39:56.698Z,16.23
2022-10-24T17:43:09.522Z,16.23
2022-10-24T17:46:23.437Z,16.20
2022-10-24T17:49:35.232Z,16.16
2022-10-24T17:52:49.436Z,16.09
2022-10-24T17:56:01.410Z,16.05
2022-10-24T17:59:13.484Z,16.02
2022-10-24T18:02:25.461Z,15.97
2022-10-24T18:05:38.416Z,15.98
2022-10-24T18:08:51.861Z,15.99
2022-10-24T18:12:03.738Z,16.01
2022-10-24T18:15:20.769Z,16.03
2022-10-24T18:18:31.343Z,16.02
2022-10-24T18:21:43.927Z,16.04
2022-10-24T18:24:55.866Z,16.03
2022-10-24T18:28:07.769Z,16.01
2022-10-24T18:31:21.682Z,15.99
2022-10-24T18:34:33.582Z,16.00
2022-10-24T18:37:45.782Z,15.98
2022-10-24T18:40:59.258Z,15.95
2022-10-24T18:44:29.111Z,15.70
2022-10-24T18:47:43.149Z,15.44
2022-10-24T18:50:57.915Z,15.28
2022-10-24T18:54:14.515Z,15.17
2022-10-24T18:57:30.953Z,15.06
2022-10-24T19:00:44.526Z,15.02
2022-10-24T19:03:57.499Z,14.95
2022-10-24T19:07:09.792Z,14.87
2022-10-24T19:10:30.218Z,14.84
2022-10-24T19:13:42.781Z,14.69
2022-10-24T19:16:58.224Z,14.60
2022-10-24T19:20:12.048Z,14.50
2022-10-24T19:23:24.736Z,14.38
2022-10-24T19:26:36.688Z,14.30
2022-10-24T19:29:48.879Z,14.23
2022-10-24T19:33:01.061Z,14.25
2022-10-24T19:36:19.097Z,14.27
2022-10-24T19:39:33.015Z,14.30
2022-10-24T19:42:43.419Z,14.29
2022-10-24T19:49:10.531Z,14.25
2022-10-24T19:52:22.625Z,14.25
2022-10-24T19:55:35.865Z,14.23
2022-10-24T19:58:48.520Z,14.22
2022-10-24T20:02:00.546Z,14.19
2022-10-24T20:05:14.438Z,14.20
2022-10-24T20:08:26.266Z,14.21
2022-10-24T20:11:38.113Z,14.30
2022-10-24T20:14:50.357Z,14.38
2022-10-24T20:18:02.144Z,14.40
2022-10-24T20:21:17.718Z,14.41
2022-10-24T20:24:30.524Z,14.40
2022-10-24T20:27:43.786Z,14.39
2022-10-24T20:30:56.012Z,14.36
2022-10-24T20:34:10.278Z,14.39
2022-10-24T20:37:22.240Z,14.51
2022-10-24T20:40:34.630Z,14.60
2022-10-24T20:43:46.683Z,14.63
2022-10-24T20:46:59.224Z,14.71
2022-10-24T20:50:12.859Z,14.73
2022-10-24T20:53:24.686Z,14.76
2022-10-24T20:56:42.355Z,14.81
2022-10-24T20:59:52.106Z,14.84
2022-10-24T21:03:03.937Z,14.87
2022-10-24T21:06:23.009Z,14.88
2022-10-24T21:09:35.133Z,14.91
2022-10-24T21:12:47.776Z,14.94
2022-10-24T21:16:04.027Z,14.95
2022-10-24T21:19:15.723Z,14.96
2022-10-24T21:22:27.493Z,14.94
2022-10-24T21:25:39.381Z,14.94
2022-10-24T21:28:54.036Z,14.91
2022-10-24T21:32:05.169Z,14.89
2022-10-24T21:35:17.080Z,14.89
2022-10-24T21:38:29.167Z,14.86
2022-10-24T21:41:40.960Z,14.82
2022-10-24T21:44:52.702Z,14.78
2022-10-24T21:48:04.444Z,14.75
2022-10-24T21:51:19.754Z,14.70
2022-10-24T21:54:32.777Z,14.64
2022-10-24T21:57:44.539Z,14.64
2022-10-24T22:00:56.474Z,14.62
2022-10-24T22:04:09.057Z,14.60
2022-10-24T22:07:20.821Z,14.58
2022-10-24T22:10:32.802Z,14.57
2022-10-24T22:13:45.770Z,14.57
2022-10-24T22:16:58.050Z,14.56
2022-10-24T22:20:13.043Z,14.54
2022-10-24T22:23:25.278Z,14.50
2022-10-24T22:26:37.543Z,14.47
2022-10-24T22:29:49.164Z,14.44
2022-10-24T22:33:03.086Z,14.42
2022-10-24T22:36:22.268Z,14.39
2022-10-24T22:39:35.530Z,14.40
2022-10-24T22:42:48.685Z,14.37
2022-10-24T22:46:06.815Z,14.34
2022-10-24T22:49:23.934Z,14.34
2022-10-24T22:52:37.155Z,14.32
2022-10-24T22:56:15.564Z,14.28
2022-10-24T22:59:30.808Z,14.28
2022-10-24T23:02:47.657Z,14.26
2022-10-24T23:06:04.431Z,14.23
2022-10-24T23:09:16.995Z,14.22
2022-10-24T23:12:30.784Z,14.17
2022-10-24T23:15:44.070Z,14.14
2022-10-24T23:18:57.656Z,14.12
2022-10-24T23:22:14.957Z,14.10
2022-10-24T23:25:29.174Z,14.09
2022-10-24T23:28:47.791Z,14.06
2022-10-24T23:32:01.191Z,14.05
2022-10-24T23:35:16.194Z,14.02
2022-10-24T23:38:29.889Z,14.00
2022-10-24T23:41:43.525Z,14.00
2022-10-24T23:44:57.011Z,13.99
2022-10-24T23:48:29.243Z,14.00
2022-10-24T23:51:46.073Z,14.01
2022-10-24T23:54:59.436Z,14.00
2022-10-24T23:58:13.083Z,13.99
